createdAt,value
2022-09-13T00:11:26.913Z,90.50
2022-09-13T00:13:54.747Z,87.90
2022-09-13T00:16:24.451Z,78.80
2022-09-13T00:18:52.105Z,78.40
2022-09-13T00:21:20.174Z,89.10
2022-09-13T00:23:49.195Z,79.50
2022-09-13T00:26:24.849Z,78.80
2022-09-13T00:28:52.741Z,91.00
2022-09-13T00:31:24.052Z,78.80
2022-09-13T00:33:51.698Z,78.90
2022-09-13T00:41:15.512Z,79.10
2022-09-13T00:43:44.067Z,91.40
2022-09-13T00:46:17.065Z,79.20
2022-09-13T00:48:46.988Z,79.30
2022-09-13T00:51:13.948Z,80.20
2022-09-13T00:53:47.709Z,91.40
2022-09-13T00:56:30.372Z,82.60
2022-09-13T00:59:07.551Z,79.40
2022-09-13T01:01:41.548Z,79.80
2022-09-13T01:09:07.660Z,84.80
2022-09-13T01:11:47.163Z,91.50
2022-09-13T01:14:14.393Z,84.40
2022-09-13T01:19:13.976Z,91.60
2022-09-13T01:22:18.236Z,86.10
2022-09-13T01:25:12.156Z,81.10
2022-09-13T01:28:17.335Z,90.50
2022-09-13T01:30:59.168Z,92.10
2022-09-13T01:33:39.356Z,92.10
2022-09-13T01:36:35.927Z,79.00
2022-09-13T01:39:30.834Z,91.50
2022-09-13T01:42:10.076Z,91.80
2022-09-13T01:44:46.504Z,79.10
2022-09-13T01:47:31.675Z,79.20
2022-09-13T01:52:52.742Z,91.60
2022-09-13T01:55:53.672Z,79.30
2022-09-13T01:58:30.621Z,92.30
2022-09-13T02:01:18.238Z,79.40
2022-09-13T02:03:57.779Z,92.30
2022-09-13T02:06:29.226Z,81.20
2022-09-13T02:09:01.146Z,81.30
2022-09-13T02:11:31.103Z,80.50
2022-09-13T02:14:13.235Z,81.70
2022-09-13T02:16:48.879Z,91.90
2022-09-13T02:19:20.954Z,92.40
2022-09-13T02:21:54.676Z,92.20
2022-09-13T02:24:30.021Z,81.90
2022-09-13T02:27:00.594Z,81.80
2022-09-13T02:29:29.424Z,92.70
2022-09-13T02:32:27.152Z,82.50
2022-09-13T02:35:05.962Z,80.20
2022-09-13T02:37:36.465Z,82.00
2022-09-13T02:40:08.860Z,82.00
2022-09-13T02:42:44.319Z,81.90
2022-09-13T02:45:14.328Z,90.00
2022-09-13T02:47:50.115Z,92.10
2022-09-13T02:50:48.008Z,80.30
2022-09-13T02:53:53.538Z,81.00
2022-09-13T02:56:51.171Z,82.70
2022-09-13T02:59:23.666Z,92.20
2022-09-13T03:02:01.509Z,80.70
2022-09-13T03:04:29.137Z,82.30
2022-09-13T03:07:20.632Z,92.60
2022-09-13T03:09:59.651Z,82.60
2022-09-13T03:12:55.751Z,81.00
2022-09-13T03:15:41.295Z,90.10
2022-09-13T03:21:30.898Z,89.70
2022-09-13T03:24:30.591Z,93.00
2022-09-13T03:27:56.850Z,81.70
2022-09-13T03:36:01.128Z,83.70
2022-09-13T03:38:46.421Z,91.70
2022-09-13T03:41:18.166Z,83.60
2022-09-13T03:43:58.176Z,87.50
2022-09-13T03:46:46.709Z,83.00
2022-09-13T03:49:19.599Z,83.60
2022-09-13T03:51:49.839Z,83.70
2022-09-13T03:54:24.509Z,90.00
2022-09-13T03:57:11.438Z,83.70
2022-09-13T03:59:49.647Z,90.40
2022-09-13T04:02:20.400Z,85.00
2022-09-13T04:07:26.455Z,84.20
2022-09-13T04:19:49.445Z,87.30
2022-09-13T04:22:21.631Z,93.30
2022-09-13T04:39:38.836Z,88.70
2022-09-13T05:04:14.243Z,90.60
2022-09-13T05:09:13.531Z,84.40
2022-09-13T05:19:02.278Z,84.80
2022-09-13T05:21:29.791Z,93.10
2022-09-13T05:23:57.439Z,84.20
2022-09-13T05:26:26.343Z,89.40
2022-09-13T05:29:02.441Z,93.90
2022-09-13T05:31:35.992Z,84.90
2022-09-13T05:34:07.872Z,84.70
2022-09-13T05:36:34.734Z,83.70
2022-09-13T05:39:28.488Z,91.40
2022-09-13T05:41:48.775Z,88.00
2022-09-13T05:44:15.412Z,93.60
2022-09-13T05:46:46.211Z,85.00
2022-09-13T05:51:40.546Z,93.20
2022-09-13T06:01:29.508Z,84.60
2022-09-13T06:03:58.899Z,85.00
2022-09-13T06:08:54.096Z,84.70
2022-09-13T06:11:23.218Z,93.90
2022-09-13T06:13:50.943Z,86.10
2022-09-13T06:21:18.502Z,88.20
2022-09-13T06:23:46.935Z,93.00
2022-09-13T06:26:16.406Z,84.10
2022-09-13T06:28:43.356Z,92.10
2022-09-13T06:31:13.678Z,90.20
2022-09-13T06:33:45.155Z,83.70
2022-09-13T06:36:20.429Z,93.30
2022-09-13T06:38:50.944Z,83.80
2022-09-13T06:41:19.883Z,83.80
2022-09-13T06:43:50.031Z,83.60
2022-09-13T06:46:22.655Z,86.90
2022-09-13T06:48:51.192Z,93.40
2022-09-13T06:51:20.479Z,85.20
2022-09-13T06:53:48.398Z,90.10
2022-09-13T06:56:20.910Z,93.00
2022-09-13T06:58:50.053Z,82.70
2022-09-13T07:01:19.833Z,86.80
2022-09-13T07:03:54.934Z,87.30
2022-09-13T07:06:24.382Z,90.40
2022-09-13T07:08:52.461Z,82.70
2022-09-13T07:11:21.486Z,83.80
2022-09-13T07:13:49.786Z,88.80
2022-09-13T07:16:17.915Z,81.40
2022-09-13T07:18:45.927Z,82.50
2022-09-13T07:26:07.856Z,82.20
2022-09-13T07:28:43.084Z,81.20
2022-09-13T07:31:12.635Z,82.00
2022-09-13T07:33:41.106Z,80.50
2022-09-13T07:38:36.909Z,83.80
2022-09-13T07:41:08.991Z,78.20
2022-09-13T07:43:36.935Z,78.20
2022-09-13T07:46:17.059Z,87.10
2022-09-13T07:48:45.945Z,77.50
2022-09-13T07:51:18.466Z,74.90
2022-09-13T07:53:46.932Z,77.30
2022-09-13T07:56:22.479Z,90.60
2022-09-13T07:58:50.882Z,77.70
2022-09-13T08:01:26.639Z,79.00
2022-09-13T08:03:59.416Z,90.40
2022-09-13T08:06:28.171Z,80.30
2022-09-13T08:08:55.651Z,90.20
2022-09-13T08:11:25.506Z,89.00
2022-09-13T08:16:21.645Z,75.70
2022-09-13T08:18:50.599Z,80.90
2022-09-13T08:21:17.263Z,88.50
2022-09-13T08:23:45.332Z,74.80
2022-09-13T08:26:12.467Z,76.80
2022-09-13T08:28:40.699Z,78.00
2022-09-13T08:31:17.743Z,74.90
2022-09-13T08:33:46.898Z,87.80
2022-09-13T08:36:14.518Z,87.50
2022-09-13T08:38:49.156Z,71.00
2022-09-13T08:41:39.865Z,66.60
2022-09-13T08:44:18.244Z,64.40
2022-09-13T08:46:46.134Z,78.10
2022-09-13T08:49:23.716Z,60.10
2022-09-13T08:51:56.008Z,58.90
2022-09-13T08:57:02.464Z,67.50
2022-09-13T08:59:38.457Z,66.30
2022-09-13T09:04:44.136Z,62.30
2022-09-13T09:07:20.068Z,47.40
2022-09-13T09:10:00.864Z,46.70
2022-09-13T09:12:36.255Z,60.20
2022-09-13T09:15:21.964Z,47.70
2022-09-13T09:18:00.716Z,64.50
2022-09-13T09:20:40.964Z,65.00
2022-09-13T09:23:21.338Z,61.50
2022-09-13T09:25:51.956Z,52.90
2022-09-13T09:28:21.273Z,51.90
2022-09-13T09:30:59.141Z,52.70
2022-09-13T09:33:45.836Z,57.80
2022-09-13T09:36:18.904Z,55.50
2022-09-13T09:44:19.027Z,52.40
2022-09-13T09:46:59.580Z,50.30
2022-09-13T09:49:59.730Z,48.90
2022-09-13T09:52:36.976Z,48.60
2022-09-13T09:55:23.555Z,46.80
2022-09-13T09:57:56.098Z,63.30
2022-09-13T10:00:25.871Z,49.60
2022-09-13T10:02:55.363Z,50.50
2022-09-13T10:05:23.226Z,51.40
2022-09-13T10:08:07.268Z,48.30
2022-09-13T10:10:37.091Z,61.60
2022-09-13T10:13:06.917Z,61.20
2022-09-13T10:15:35.404Z,50.00
2022-09-13T10:18:40.026Z,60.30
2022-09-13T10:21:24.696Z,60.40
2022-09-13T10:23:51.609Z,60.70
2022-09-13T10:26:21.363Z,60.00
2022-09-13T10:29:07.226Z,41.60
2022-09-13T10:31:40.724Z,43.80
2022-09-13T10:34:35.856Z,57.90
2022-09-13T10:37:31.450Z,56.90
2022-09-13T10:40:04.349Z,56.00
2022-09-13T10:42:31.296Z,55.50
2022-09-13T10:45:09.162Z,42.10
2022-09-13T10:47:49.996Z,41.20
2022-09-13T10:50:26.065Z,46.10
2022-09-13T10:52:57.767Z,59.90
2022-09-13T10:55:42.612Z,61.70
2022-09-13T10:58:09.216Z,60.00
2022-09-13T11:00:43.948Z,59.60
2022-09-13T11:03:34.335Z,40.30
2022-09-13T11:06:30.003Z,37.60
2022-09-13T11:11:38.083Z,48.80
2022-09-13T11:14:29.645Z,50.40
2022-09-13T11:17:21.574Z,35.70
2022-09-13T11:20:05.815Z,51.80
2022-09-13T11:22:50.973Z,48.60
2022-09-13T11:25:31.512Z,34.10
2022-09-13T11:28:10.303Z,31.50
2022-09-13T11:31:03.924Z,31.40
2022-09-13T11:33:59.283Z,41.30
2022-09-13T11:39:22.627Z,29.10
2022-09-13T11:42:01.451Z,42.00
2022-09-13T11:45:03.004Z,33.40
2022-09-13T11:50:06.091Z,39.00
2022-09-13T11:52:51.487Z,38.00
2022-09-13T11:55:39.909Z,38.10
2022-09-13T11:58:14.468Z,40.50
2022-09-13T12:00:53.435Z,38.40
2022-09-13T12:03:30.907Z,40.00
2022-09-13T12:06:18.011Z,27.50
2022-09-13T12:08:49.936Z,41.00
2022-09-13T12:11:22.449Z,41.10
2022-09-13T12:13:54.898Z,41.80
2022-09-13T12:16:37.540Z,38.90
2022-09-13T12:19:41.944Z,40.10
2022-09-13T12:22:10.648Z,38.70
2022-09-13T12:24:59.802Z,38.10
2022-09-13T12:27:40.341Z,30.70
2022-09-13T12:30:07.487Z,39.50
2022-09-13T12:32:34.257Z,38.60
2022-09-13T12:35:09.093Z,38.20
2022-09-13T12:38:00.465Z,38.40
2022-09-13T12:41:09.033Z,39.20
2022-09-13T12:44:04.476Z,35.80
2022-09-13T12:46:40.169Z,41.00
2022-09-13T12:49:52.746Z,40.20
2022-09-13T12:52:44.903Z,41.30
2022-09-13T12:55:45.555Z,27.60
2022-09-13T12:58:50.509Z,28.60
2022-09-13T13:01:22.070Z,44.90
2022-09-13T13:04:08.768Z,29.30
2022-09-13T13:06:55.820Z,44.60
2022-09-13T13:09:36.187Z,44.60
2022-09-13T13:12:04.473Z,45.40
2022-09-13T13:14:39.863Z,44.80
2022-09-13T13:17:34.875Z,47.70
2022-09-13T13:20:44.844Z,38.90
2022-09-13T13:23:21.780Z,48.00
2022-09-13T13:26:01.064Z,40.70
2022-09-13T13:28:44.164Z,32.50
2022-09-13T13:31:23.664Z,34.10
2022-09-13T13:33:55.717Z,49.90
2022-09-13T13:36:28.737Z,35.50
2022-09-13T13:38:56.862Z,38.40
2022-09-13T13:41:41.617Z,50.20
2022-09-13T13:44:24.803Z,34.70
2022-09-13T13:47:17.524Z,52.70
2022-09-13T13:49:52.520Z,34.90
2022-09-13T13:54:55.548Z,41.60
2022-09-13T13:57:32.604Z,36.40
2022-09-13T14:00:11.542Z,36.20
2022-09-13T14:02:54.048Z,41.10
2022-09-13T14:05:54.446Z,54.10
2022-09-13T14:08:39.540Z,37.50
2022-09-13T14:11:37.802Z,54.30
2022-09-13T14:14:13.776Z,38.10
2022-09-13T14:17:00.482Z,47.30
2022-09-13T14:19:40.283Z,38.90
2022-09-13T14:22:12.709Z,54.70
2022-09-13T14:24:43.193Z,40.10
2022-09-13T14:27:37.576Z,56.20
2022-09-13T14:30:32.627Z,52.00
2022-09-13T14:35:44.824Z,45.60
2022-09-13T14:38:23.481Z,54.90
2022-09-13T14:40:57.877Z,47.00
2022-09-13T14:43:29.730Z,52.10
2022-09-13T14:46:11.175Z,39.60
2022-09-13T14:48:53.346Z,57.60
2022-09-13T14:51:25.269Z,56.00
2022-09-13T14:54:01.731Z,41.60
2022-09-13T14:56:39.950Z,48.10
2022-09-13T14:59:15.138Z,57.00
2022-09-13T15:06:38.958Z,53.80
2022-09-13T15:09:11.031Z,57.90
2022-09-13T15:11:42.473Z,45.10
2022-09-13T15:14:25.723Z,42.40
2022-09-13T15:17:02.973Z,47.30
2022-09-13T15:19:35.347Z,44.40
2022-09-13T15:22:14.123Z,43.80
2022-09-13T15:24:47.393Z,58.40
2022-09-13T15:27:43.817Z,60.70
2022-09-13T15:30:26.753Z,43.50
2022-09-13T15:33:11.649Z,61.10
2022-09-13T15:35:43.885Z,43.50
2022-09-13T15:38:28.156Z,61.90
2022-09-13T15:41:18.202Z,61.70
2022-09-13T15:46:15.730Z,60.30
2022-09-13T15:48:52.630Z,46.60
2022-09-13T15:51:19.340Z,56.90
2022-09-13T15:53:48.776Z,49.20
2022-09-13T15:56:28.369Z,56.20
2022-09-13T15:58:54.954Z,57.60
2022-09-13T16:03:48.755Z,64.30
2022-09-13T16:06:15.446Z,57.60
2022-09-13T16:08:42.222Z,65.10
2022-09-13T16:13:36.525Z,51.00
2022-09-13T16:16:05.028Z,52.10
2022-09-13T16:23:26.496Z,67.30
2022-09-13T16:25:57.265Z,60.60
2022-09-13T16:28:24.515Z,67.80
2022-09-13T16:30:54.907Z,53.20
2022-09-13T16:38:20.310Z,68.10
2022-09-13T16:45:42.209Z,68.30
2022-09-13T16:48:09.375Z,58.00
2022-09-13T16:50:39.322Z,60.50
2022-09-13T16:53:06.213Z,54.90
2022-09-13T16:55:33.042Z,68.10
2022-09-13T16:57:59.774Z,66.50
2022-09-13T17:00:28.556Z,65.70
2022-09-13T17:02:56.262Z,55.00
2022-09-13T17:05:24.007Z,54.70
2022-09-13T17:07:59.688Z,68.90
2022-09-13T17:20:16.876Z,71.40
2022-09-13T17:25:13.673Z,57.20
2022-09-13T17:30:08.004Z,69.10
2022-09-13T17:32:34.595Z,60.60
2022-09-13T17:35:01.729Z,72.50
2022-09-13T17:39:55.920Z,68.50
2022-09-13T17:42:23.597Z,72.50
2022-09-13T17:44:52.055Z,74.00
2022-09-13T17:54:41.547Z,74.30
2022-09-13T17:57:11.916Z,61.00
2022-09-13T17:59:41.563Z,72.20
2022-09-13T18:02:10.595Z,61.80
2022-09-13T18:04:37.313Z,75.90
2022-09-13T18:07:04.034Z,76.60
2022-09-13T18:09:30.649Z,75.50
2022-09-13T18:11:57.325Z,70.30
2022-09-13T18:16:55.724Z,76.90
2022-09-13T18:19:44.234Z,63.30
2022-09-13T18:22:09.979Z,77.70
2022-09-13T18:27:05.387Z,69.00
2022-09-13T18:29:32.872Z,76.10
2022-09-13T18:39:24.902Z,79.00
2022-09-13T18:44:21.246Z,79.70
2022-09-13T18:46:49.351Z,79.30
2022-09-13T18:49:18.260Z,75.40
2022-09-13T18:51:46.228Z,79.40
2022-09-13T18:54:17.725Z,78.80
2022-09-13T18:56:54.315Z,64.20
2022-09-13T18:59:21.651Z,80.00
2022-09-13T19:04:18.830Z,66.20
2022-09-13T19:06:58.183Z,68.40
2022-09-13T19:11:53.820Z,68.90
2022-09-13T19:14:27.510Z,78.40
2022-09-13T19:17:01.215Z,80.20
2022-09-13T19:19:30.450Z,76.80
2022-09-13T19:21:57.902Z,70.60
2022-09-13T19:24:25.860Z,80.90
2022-09-13T19:26:56.579Z,78.90
2022-09-13T19:29:23.918Z,73.30
2022-09-13T19:31:55.821Z,70.90
2022-09-13T19:34:23.535Z,67.40
2022-09-13T19:36:59.469Z,69.40
2022-09-13T19:39:30.344Z,81.60
2022-09-13T19:41:59.541Z,67.00
2022-09-13T19:49:43.552Z,66.60
2022-09-13T19:52:10.230Z,78.30
2022-09-13T20:02:05.202Z,68.70
2022-09-13T20:14:27.837Z,72.70
2022-09-13T20:16:54.901Z,81.40
2022-09-13T20:24:36.276Z,77.80
2022-09-13T20:27:03.006Z,83.10
2022-09-13T20:36:56.314Z,76.00
2022-09-13T20:39:23.215Z,74.20
2022-09-13T20:44:17.423Z,83.50
2022-09-13T20:46:44.228Z,82.60
2022-09-13T20:51:38.807Z,70.00
2022-09-13T21:01:29.871Z,70.90
2022-09-13T21:03:57.741Z,74.10
2022-09-13T21:06:26.872Z,77.70
2022-09-13T21:09:00.036Z,84.20
2022-09-13T21:11:34.677Z,85.00
2022-09-13T21:14:03.794Z,84.10
2022-09-13T21:16:36.316Z,69.40
2022-09-13T21:19:03.807Z,85.00
2022-09-13T21:21:34.464Z,71.30
2022-09-13T21:24:04.254Z,84.00
2022-09-13T21:26:34.175Z,78.70
2022-09-13T21:29:01.306Z,79.30
2022-09-13T21:31:30.934Z,74.50
2022-09-13T21:34:02.957Z,71.40
2022-09-13T21:36:31.106Z,71.50
2022-09-13T21:38:58.501Z,84.40
2022-09-13T21:41:26.575Z,71.60
2022-09-13T21:43:53.777Z,85.90
2022-09-13T21:46:23.398Z,71.90
2022-09-13T21:48:52.391Z,71.60
2022-09-13T21:51:22.101Z,71.80
2022-09-13T21:53:57.658Z,71.80
2022-09-13T21:56:29.960Z,71.90
2022-09-13T21:59:01.859Z,71.80
2022-09-13T22:01:43.836Z,70.20
2022-09-13T22:04:16.966Z,79.30
2022-09-13T22:06:45.379Z,72.00
2022-09-13T22:09:13.360Z,71.80
2022-09-13T22:11:43.593Z,72.10
2022-09-13T22:14:12.887Z,72.20
2022-09-13T22:16:41.843Z,72.20
2022-09-13T22:19:11.959Z,72.20
2022-09-13T22:21:40.388Z,73.40
2022-09-13T22:24:08.525Z,72.20
2022-09-13T22:26:39.356Z,76.60
2022-09-13T22:29:07.367Z,72.60
2022-09-13T22:31:40.294Z,87.20
2022-09-13T22:34:08.103Z,86.90
2022-09-13T22:36:34.759Z,80.90
2022-09-13T22:41:35.303Z,75.60
2022-09-13T22:44:03.495Z,73.70
2022-09-13T22:46:33.330Z,74.00
2022-09-13T22:49:02.010Z,78.80
2022-09-13T22:56:28.880Z,74.90
2022-09-13T22:59:01.069Z,74.90
2022-09-13T23:01:29.668Z,75.20
2022-09-13T23:03:57.266Z,74.70
2022-09-13T23:06:25.634Z,83.80
2022-09-13T23:08:53.996Z,89.20
2022-09-13T23:11:26.373Z,86.00
2022-09-13T23:13:54.778Z,76.30
2022-09-13T23:16:24.062Z,76.40
2022-09-13T23:18:51.815Z,90.30
2022-09-13T23:21:20.628Z,89.60
2022-09-13T23:26:17.612Z,77.10
2022-09-13T23:28:58.690Z,90.60
2022-09-13T23:31:30.893Z,77.40
2022-09-13T23:33:59.562Z,78.30
2022-09-13T23:36:34.560Z,83.60
2022-09-13T23:39:03.388Z,85.80
2022-09-13T23:41:30.998Z,89.90
2022-09-13T23:43:57.659Z,79.70
2022-09-13T23:51:25.673Z,77.80
2022-09-13T23:53:56.723Z,77.80
2022-09-13T23:56:28.013Z,78.00
2022-09-13T23:58:59.283Z,85.20
